Michael Mccreery — WDF2469 — position and weather

sailwx.info

Track history (hours):
 
Tides and Currents Weather Stations Pressure Air Temp Water Temp Dewpoint Dewpoint Depression Visibility Wind Speed Wind Dir Waves Ship Positions

Michael Mccreery

Owner: Kirby Inland Marine, LP, Houston, TX. More information available from US FCC via Universal Licensing System and Coast Guard Vessel Documentation Center.

Last reported at 2018-May-23 20:09 UTC. Time now 2018-May-23 22:31 UTC.
Position N 29°47' W 095°04'.

MMSI: 366986392.

Date/timePositionNaut miles runAvg speedWind from/ knotsBaromVisibWave heightAir tempDewpointWater temp
2018-May-23 20:09N 29°47' W 095°04'  
2018-May-18 11:06N 29°43' W 095°14'0 0.2
2018-May-18 10:25N 29°43' W 095°14'0 0.1
2018-May-18 10:00N 29°43' W 095°14'2 2.9
2018-May-18 09:21N 29°44' W 095°12'2 6.2
2018-May-18 09:00N 29°45' W 095°10'3 5.6
2018-May-18 08:25N 29°45' W 095°06'3 6.3
2018-May-18 07:59N 29°47' W 095°04'0 0.5
2018-May-18 07:29N 29°47' W 095°04'1 1.0
2018-May-18 06:56N 29°47' W 095°05'0 0.0
2018-May-18 06:27N 29°47' W 095°05'0 0.0
2018-May-18 06:00N 29°47' W 095°05'0 0.0
2018-May-18 05:30N 29°47' W 095°05'0 0.0
2018-May-18 04:56N 29°47' W 095°05'0 0.0
2018-May-18 04:30N 29°47' W 095°05'0 0.0
2018-May-18 03:57N 29°47' W 095°05'0 0.0
2018-May-18 03:31N 29°47' W 095°05'0 0.0
2018-May-18 02:55N 29°47' W 095°05'0 0.0
2018-May-18 02:29N 29°47' W 095°05'1 1.9
2018-May-18 01:53N 29°46' W 095°05'4 0.4
2018-May-17 13:37N 29°43' W 095°01'1 7.1
2018-May-17 13:29N 29°42' W 095°01'3 6.8
2018-May-17 13:00N 29°40' W 094°58'3 5.5
2018-May-17 12:30N 29°37' W 094°58'3 5.8
2018-May-17 12:00N 29°37' W 095°01'0 0.3
2018-May-17 11:29N 29°37' W 095°01'0 0.0
2018-May-17 11:00N 29°37' W 095°01'0 0.0
2018-May-17 10:30N 29°37' W 095°01'0 0.0
2018-May-17 10:00N 29°37' W 095°01'0 0.0
2018-May-17 09:30N 29°37' W 095°01'0 0.0
2018-May-17 09:00N 29°37' W 095°01'0 0.0
2018-May-17 08:30N 29°37' W 095°01'0 0.0
2018-May-17 08:00N 29°37' W 095°01'0 0.0
2018-May-17 07:30N 29°37' W 095°01'0 0.0
2018-May-17 07:00N 29°37' W 095°01'0 0.0
2018-May-17 06:30N 29°37' W 095°01'0 0.0
2018-May-17 06:00N 29°37' W 095°01'0 0.0
2018-May-17 05:30N 29°37' W 095°01'0 0.0
2018-May-17 05:00N 29°37' W 095°01'0 0.0
2018-May-17 04:30N 29°37' W 095°01'0 0.0
2018-May-17 04:00N 29°37' W 095°01'0 0.0
2018-May-17 03:30N 29°37' W 095°01'0 0.0
2018-May-17 03:00N 29°37' W 095°01'0 0.0
2018-May-17 02:30N 29°37' W 095°01'0 0.0
2018-May-17 02:00N 29°37' W 095°01'0 0.0
2018-May-17 01:30N 29°37' W 095°01'0 0.1
2018-May-17 01:00N 29°37' W 095°01'2 4.0
2018-May-17 00:30N 29°37' W 094°59'2 3.5
2018-May-17 00:00N 29°38' W 094°58'3 5.7
2018-May-16 23:30N 29°41' W 094°59'2 3.5
2018-May-16 22:58N 29°42' W 095°01'6 0.7
2018-May-16 14:23N 29°47' W 095°04'0 0.3
2018-May-16 13:40N 29°47' W 095°04'0 0.0
2018-May-16 13:21N 29°47' W 095°04'1 2.7
2018-May-16 12:58N 29°46' W 095°05'1 1.5
2018-May-16 12:27N 29°47' W 095°04'0 0.8
2018-May-16 12:00N 29°47' W 095°04'0 0.0
2018-May-16 11:30N 29°47' W 095°04'2 1.8
2018-May-16 10:28N 29°46' W 095°06'0 0.7
2018-May-16 10:00N 29°46' W 095°05'2 3.4
2018-May-16 09:28N 29°47' W 095°04'0 0.1
2018-May-16 08:57N 29°47' W 095°04'0 0.1
2018-May-16 08:30N 29°47' W 095°04'0 0.3
2018-May-16 08:00N 29°47' W 095°04'1 3.0
2018-May-16 07:30N 29°46' W 095°05'1 1.4
2018-May-16 07:00N 29°46' W 095°06'0 0.0
2018-May-16 06:30N 29°46' W 095°06'0 0.0
2018-May-16 06:00N 29°46' W 095°06'0 0.5
2018-May-16 05:30N 29°45' W 095°06'2 3.2
2018-May-16 05:00N 29°47' W 095°05'1 1.4
2018-May-16 04:29N 29°47' W 095°04'0 0.2
2018-May-16 03:59N 29°47' W 095°04'0 0.0
2018-May-16 02:54N 29°47' W 095°04'0 0.0
2018-May-16 02:30N 29°47' W 095°04'0 0.0
2018-May-16 02:00N 29°47' W 095°04'3 0.1
2018-May-15 04:18N 29°45' W 095°06'0 0.0
2018-May-15 03:48N 29°45' W 095°06'0 0.0
2018-May-15 03:26N 29°45' W 095°06'0 0.0
2018-May-15 01:32N 29°45' W 095°06'0 1.2
2018-May-15 01:30N 29°45' W 095°06'  
Track history (hours):
 
Tides and Currents Weather Stations Pressure Air Temp Water Temp Dewpoint Dewpoint Depression Visibility Wind Speed Wind Dir Waves Ship Positions

Michael Mccreery

Owner: Kirby Inland Marine, LP, Houston, TX. More information available from US FCC via Universal Licensing System and Coast Guard Vessel Documentation Center.

Last reported at 2018-May-23 20:09 UTC. Time now 2018-May-23 22:31 UTC.
Position N 29°47' W 095°04'.

MMSI: 366986392.

Date/timePositionNaut miles runAvg speedWind from/ knotsBaromVisibWave heightAir tempDewpointWater temp
2018-May-23 20:09N 29°47' W 095°04'  
2018-May-18 11:06N 29°43' W 095°14'0 0.2
2018-May-18 10:25N 29°43' W 095°14'0 0.1
2018-May-18 10:00N 29°43' W 095°14'2 2.9
2018-May-18 09:21N 29°44' W 095°12'2 6.2
2018-May-18 09:00N 29°45' W 095°10'3 5.6
2018-May-18 08:25N 29°45' W 095°06'3 6.3
2018-May-18 07:59N 29°47' W 095°04'0 0.5
2018-May-18 07:29N 29°47' W 095°04'1 1.0
2018-May-18 06:56N 29°47' W 095°05'0 0.0
2018-May-18 06:27N 29°47' W 095°05'0 0.0
2018-May-18 06:00N 29°47' W 095°05'0 0.0
2018-May-18 05:30N 29°47' W 095°05'0 0.0
2018-May-18 04:56N 29°47' W 095°05'0 0.0
2018-May-18 04:30N 29°47' W 095°05'0 0.0
2018-May-18 03:57N 29°47' W 095°05'0 0.0
2018-May-18 03:31N 29°47' W 095°05'0 0.0
2018-May-18 02:55N 29°47' W 095°05'0 0.0
2018-May-18 02:29N 29°47' W 095°05'1 1.9
2018-May-18 01:53N 29°46' W 095°05'4 0.4
2018-May-17 13:37N 29°43' W 095°01'1 7.1
2018-May-17 13:29N 29°42' W 095°01'3 6.8
2018-May-17 13:00N 29°40' W 094°58'3 5.5
2018-May-17 12:30N 29°37' W 094°58'3 5.8
2018-May-17 12:00N 29°37' W 095°01'0 0.3
2018-May-17 11:29N 29°37' W 095°01'0 0.0
2018-May-17 11:00N 29°37' W 095°01'0 0.0
2018-May-17 10:30N 29°37' W 095°01'0 0.0
2018-May-17 10:00N 29°37' W 095°01'0 0.0
2018-May-17 09:30N 29°37' W 095°01'0 0.0
2018-May-17 09:00N 29°37' W 095°01'0 0.0
2018-May-17 08:30N 29°37' W 095°01'0 0.0
2018-May-17 08:00N 29°37' W 095°01'0 0.0
2018-May-17 07:30N 29°37' W 095°01'0 0.0
2018-May-17 07:00N 29°37' W 095°01'0 0.0
2018-May-17 06:30N 29°37' W 095°01'0 0.0
2018-May-17 06:00N 29°37' W 095°01'0 0.0
2018-May-17 05:30N 29°37' W 095°01'0 0.0
2018-May-17 05:00N 29°37' W 095°01'0 0.0
2018-May-17 04:30N 29°37' W 095°01'0 0.0
2018-May-17 04:00N 29°37' W 095°01'0 0.0
2018-May-17 03:30N 29°37' W 095°01'0 0.0
2018-May-17 03:00N 29°37' W 095°01'0 0.0
2018-May-17 02:30N 29°37' W 095°01'0 0.0
2018-May-17 02:00N 29°37' W 095°01'0 0.0
2018-May-17 01:30N 29°37' W 095°01'0 0.1
2018-May-17 01:00N 29°37' W 095°01'2 4.0
2018-May-17 00:30N 29°37' W 094°59'2 3.5
2018-May-17 00:00N 29°38' W 094°58'3 5.7
2018-May-16 23:30N 29°41' W 094°59'2 3.5
2018-May-16 22:58N 29°42' W 095°01'6 0.7
2018-May-16 14:23N 29°47' W 095°04'0 0.3
2018-May-16 13:40N 29°47' W 095°04'0 0.0
2018-May-16 13:21N 29°47' W 095°04'1 2.7
2018-May-16 12:58N 29°46' W 095°05'1 1.5
2018-May-16 12:27N 29°47' W 095°04'0 0.8
2018-May-16 12:00N 29°47' W 095°04'0 0.0
2018-May-16 11:30N 29°47' W 095°04'2 1.8
2018-May-16 10:28N 29°46' W 095°06'0 0.7
2018-May-16 10:00N 29°46' W 095°05'2 3.4
2018-May-16 09:28N 29°47' W 095°04'0 0.1
2018-May-16 08:57N 29°47' W 095°04'0 0.1
2018-May-16 08:30N 29°47' W 095°04'0 0.3
2018-May-16 08:00N 29°47' W 095°04'1 3.0
2018-May-16 07:30N 29°46' W 095°05'1 1.4
2018-May-16 07:00N 29°46' W 095°06'0 0.0
2018-May-16 06:30N 29°46' W 095°06'0 0.0
2018-May-16 06:00N 29°46' W 095°06'0 0.5
2018-May-16 05:30N 29°45' W 095°06'2 3.2
2018-May-16 05:00N 29°47' W 095°05'1 1.4
2018-May-16 04:29N 29°47' W 095°04'0 0.2
2018-May-16 03:59N 29°47' W 095°04'0 0.0
2018-May-16 02:54N 29°47' W 095°04'0 0.0
2018-May-16 02:30N 29°47' W 095°04'0 0.0
2018-May-16 02:00N 29°47' W 095°04'3 0.1
2018-May-15 04:18N 29°45' W 095°06'0 0.0
2018-May-15 03:48N 29°45' W 095°06'0 0.0
2018-May-15 03:26N 29°45' W 095°06'0 0.0
2018-May-15 01:32N 29°45' W 095°06'0 1.2
2018-May-15 01:30N 29°45' W 095°06'  

Dump ship's entire track history